Time;durP1;ratioP1;P1;durP2;ratioP2;P2;SDS_P1;SDS_P2;PMS_P1;PMS_P2;Temp;Humidity;BMP_temperature;BMP_pressure;BME280_temperature;BME280_humidity;BME280_pressure;Samples;Min_cycle;Max_cycle;Signal;HPM_P1;HPM_P2
2022/09/12 00:01:12;;;;;;;;;;;;;;;-144.99;100.00;52333.94;5046912;28;19929;-71
2022/09/12 00:03:39;;;;;;;;;;;;;;;-144.99;99.17;52305.41;5047487;28;19990;-74
2022/09/12 00:06:12;;;;;;;;;;;;;;;-144.99;98.65;52285.03;5047439;28;19967;-75
2022/09/12 00:08:38;;;;;;;;;;;;;;;-144.99;98.86;52344.16;5047702;28;19960;-75
2022/09/12 00:11:06;;;;;;;;;;;;;;;-144.99;98.94;52325.81;5043374;28;20375;-75
2022/09/12 00:13:32;;;;;;;;;;;;;;;-144.99;98.80;52338.03;5040482;28;19931;-75
2022/09/12 00:15:58;;;;;;;;;;;;;;;-144.99;98.91;52333.94;5045387;28;19956;-75
2022/09/12 00:18:25;;;;;;;;;;;;;;;-144.99;98.34;52317.66;5047969;28;19987;-75
2022/09/12 00:20:51;;;;;;;;;;;;;;;-144.99;98.05;52293.19;5047789;28;19981;-74
2022/09/12 00:23:19;;;;;;;;;;;;;;;-144.99;98.44;52276.88;5047393;28;20466;-75
2022/09/12 00:25:47;;;;;;;;;;;;;;;-144.99;98.51;52313.56;5047080;28;20380;-75
2022/09/12 00:28:14;;;;;;;;;;;;;;;-144.99;98.44;52342.09;5047485;28;19935;-75
2022/09/12 00:30:41;;;;;;;;;;;;;;;-144.99;98.72;52313.56;5048296;28;19992;-74
2022/09/12 00:33:08;;;;;;;;;;;;;;;-144.99;98.92;52307.47;5032247;28;19952;-74
2022/09/12 00:35:34;;;;;;;;;;;;;;;-144.99;99.64;52321.72;5045844;28;19924;-74
2022/09/12 00:38:01;;;;;;;;;;;;;;;-144.99;100.00;52305.41;5046300;28;19932;-75
2022/09/12 00:40:29;;;;;;;;;;;;;;;-144.99;100.00;52323.75;5046312;28;20020;-72
2022/09/12 00:42:55;;;;;;;;;;;;;;;-144.99;100.00;52321.72;5045633;28;19938;-73
2022/09/12 00:45:23;;;;;;;;;;;;;;;-144.99;100.00;52346.19;5046394;28;20019;-74
2022/09/12 00:47:50;;;;;;;;;;;;;;;-144.99;100.00;52346.19;5044045;28;19943;-73
2022/09/12 00:50:17;;;;;;;;;;;;;;;-144.99;100.00;52321.72;5044801;28;20448;-72
2022/09/12 00:52:45;;;;;;;;;;;;;;;-144.99;100.00;52350.25;5032989;28;19960;-73
2022/09/12 00:55:14;;;;;;;;;;;;;;;-144.99;100.00;52321.72;5045253;28;20011;-73
2022/09/12 00:57:44;;;;;;;;;;;;;;;-144.99;100.00;52305.41;5046120;28;19956;-72
2022/09/12 01:00:14;;;;;;;;;;;;;;;-144.99;100.00;52313.56;5046212;28;20185;-72
2022/09/12 01:02:41;;;;;;;;;;;;;;;-144.99;100.00;52338.03;5043799;28;19928;-73
2022/09/12 01:05:08;;;;;;;;;;;;;;;-144.99;100.00;52325.81;5046231;28;19980;-73
2022/09/12 01:07:35;;;;;;;;;;;;;;;-144.99;100.00;52297.25;5037134;28;19929;-71
2022/09/12 01:10:02;;;;;;;;;;;;;;;-144.99;100.00;52344.16;5047617;28;19924;-71
2022/09/12 01:12:29;;;;;;;;;;;;;;;-144.99;100.00;52340.06;5035660;28;20013;-71
2022/09/12 01:14:58;;;;;;;;;;;;;;;-144.99;100.00;52350.25;5047044;28;20394;-71
2022/09/12 01:17:27;;;;;;;;;;;;;;;-144.99;100.00;52368.59;5045125;28;20019;-72
2022/09/12 01:20:09;;;;;;;;;;;;;;;-144.99;100.00;52346.19;5039276;28;20023;-73
2022/09/12 01:22:46;;;;;;;;;;;;;;;-144.99;100.00;52329.88;5028221;28;20454;-73
2022/09/12 01:25:22;;;;;;;;;;;;;;;-144.99;100.00;52342.09;5045819;28;19971;-73
2022/09/12 01:27:57;;;;;;;;;;;;;;;-144.99;100.00;52329.88;5045188;28;19925;-74
2022/09/12 01:30:32;;;;;;;;;;;;;;;-144.99;100.00;52305.41;5035552;28;20373;-73
2022/09/12 01:33:06;;;;;;;;;;;;;;;-144.99;100.00;52340.06;5034819;28;19968;-73
2022/09/12 01:35:38;;;;;;;;;;;;;;;-144.99;100.00;52311.53;5045813;28;20032;-73
2022/09/12 01:38:10;;;;;;;;;;;;;;;-144.99;100.00;52346.19;5046618;28;20005;-70
2022/09/12 01:40:41;;;;;;;;;;;;;;;-144.99;100.00;52338.03;5047406;28;19933;-73
2022/09/12 01:43:18;;;;;;;;;;;;;;;-144.99;100.00;52336.00;5045685;28;20024;-73
2022/09/12 01:45:50;;;;;;;;;;;;;;;-144.99;100.00;52313.56;5047216;28;19954;-74
2022/09/12 01:48:19;;;;;;;;;;;;;;;-144.99;100.00;52319.69;5040454;28;19929;-71
2022/09/12 01:50:48;;;;;;;;;;;;;;;-144.99;100.00;52382.88;5037117;28;20367;-74
2022/09/12 01:53:17;;;;;;;;;;;;;;;-144.99;100.00;52319.69;5031558;28;19971;-75
2022/09/12 01:55:46;;;;;;;;;;;;;;;-144.99;100.00;52354.34;5044565;28;19956;-75
2022/09/12 01:58:16;;;;;;;;;;;;;;;-144.99;100.00;52346.19;5045316;28;19925;-73
2022/09/12 02:00:46;;;;;;;;;;;;;;;-144.99;100.00;52376.75;5045792;28;19968;-73
2022/09/12 02:03:17;;;;;;;;;;;;;;;-144.99;100.00;52309.50;5042832;28;19995;-71
2022/09/12 02:05:47;;;;;;;;;;;;;;;-144.99;100.00;52342.09;5046447;28;20386;-73
2022/09/12 02:08:16;;;;;;;;;;;;;;;-144.99;100.00;52325.81;5046866;28;19967;-72
2022/09/12 02:10:44;;;;;;;;;;;;;;;-144.99;100.00;52321.72;5045549;28;19963;-72
2022/09/12 02:13:13;;;;;;;;;;;;;;;-144.99;100.00;52321.72;5033997;28;20318;-72
2022/09/12 02:15:40;;;;;;;;;;;;;;;-144.99;100.00;52350.25;5044160;28;19929;-71
2022/09/12 02:18:08;;;;;;;;;;;;;;;-144.99;100.00;52327.84;5044789;28;19994;-71
2022/09/12 02:20:37;;;;;;;;;;;;;;;-144.99;100.00;52366.56;5046799;28;19978;-71
2022/09/12 02:23:07;;;;;;;;;;;;;;;-144.99;100.00;52338.03;5036965;28;20020;-73
2022/09/12 02:25:35;;;;;;;;;;;;;;;-144.99;100.00;52362.50;5048511;28;20312;-73
2022/09/12 02:28:04;;;;;;;;;;;;;;;-144.99;100.00;52346.19;5048449;28;20396;-73
2022/09/12 02:30:36;;;;;;;;;;;;;;;-144.99;100.00;52319.69;5049814;28;19931;-76
2022/09/12 02:33:06;;;;;;;;;;;;;;;-144.99;100.00;52358.41;5040025;28;19952;-74
2022/09/12 02:35:38;;;;;;;;;;;;;;;-144.99;100.00;52354.34;5050911;28;19928;-73
2022/09/12 02:38:09;;;;;;;;;;;;;;;-144.99;100.00;52395.09;5050555;28;20019;-74
2022/09/12 02:40:36;;;;;;;;;;;;;;;-144.99;100.00;52338.03;5047739;28;20021;-74
2022/09/12 02:43:03;;;;;;;;;;;;;;;-144.99;100.00;52350.25;5037696;28;20328;-74
2022/09/12 02:45:31;;;;;;;;;;;;;;;-144.99;100.00;52323.75;5049390;28;19925;-72
2022/09/12 02:47:58;;;;;;;;;;;;;;;-144.99;100.00;52321.72;5047618;28;20372;-74
2022/09/12 02:50:25;;;;;;;;;;;;;;;-144.99;100.00;52325.81;5042212;28;20474;-73
2022/09/12 02:52:54;;;;;;;;;;;;;;;-144.99;100.00;52366.56;5043209;28;19959;-75
2022/09/12 02:55:23;;;;;;;;;;;;;;;-144.99;100.00;52329.88;5055799;28;19929;-75
2022/09/12 02:57:49;;;;;;;;;;;;;;;-144.99;100.00;52311.53;5056088;28;19960;-74
2022/09/12 03:00:16;;;;;;;;;;;;;;;-144.99;100.00;52354.34;5041826;28;19971;-76
2022/09/12 03:02:50;;;;;;;;;;;;;;;-144.99;100.00;52374.72;5048046;28;20019;-75
2022/09/12 03:05:20;;;;;;;;;;;;;;;-144.99;100.00;52342.09;5052294;28;20015;-76
2022/09/12 03:07:58;;;;;;;;;;;;;;;-144.99;100.00;52333.94;5051272;28;19991;-73
2022/09/12 03:10:31;;;;;;;;;;;;;;;-144.99;100.00;52346.19;5049821;28;19967;-74
2022/09/12 03:13:01;;;;;;;;;;;;;;;-144.99;100.00;52329.88;5042432;28;20115;-73
2022/09/12 03:15:30;;;;;;;;;;;;;;;-144.99;100.00;52354.34;5047507;28;20014;-73
2022/09/12 03:18:03;;;;;;;;;;;;;;;-144.99;100.00;52354.34;5047074;28;20462;-74
2022/09/12 03:20:37;;;;;;;;;;;;;;;-144.99;100.00;52378.78;5049432;28;19928;-75
2022/09/12 03:23:05;;;;;;;;;;;;;;;-144.99;100.00;52378.78;5048687;28;19963;-73
2022/09/12 03:25:36;;;;;;;;;;;;;;;-144.99;100.00;52321.72;5038610;28;19929;-74
2022/09/12 03:28:06;;;;;;;;;;;;;;;-144.99;100.00;52350.25;5039376;28;20579;-73
2022/09/12 03:30:37;;;;;;;;;;;;;;;-144.99;100.00;52313.56;5049499;28;19935;-73
2022/09/12 03:33:03;;;;;;;;;;;;;;;-144.99;100.00;52329.88;5039566;28;20015;-73
2022/09/12 03:35:29;;;;;;;;;;;;;;;-144.99;100.00;52386.94;5048362;28;19963;-73
2022/09/12 03:37:56;;;;;;;;;;;;;;;-144.99;100.00;52338.03;5049744;28;20011;-72
2022/09/12 03:40:22;;;;;;;;;;;;;;;-144.99;100.00;52309.50;5049920;28;20441;-71
2022/09/12 03:42:50;;;;;;;;;;;;;;;-144.99;100.00;52309.50;5047418;28;20094;-73
2022/09/12 03:45:17;;;;;;;;;;;;;;;-144.99;100.00;52338.03;5045207;28;20016;-74
2022/09/12 03:47:43;;;;;;;;;;;;;;;-144.99;100.00;52358.41;5046580;28;19924;-73
2022/09/12 03:50:10;;;;;;;;;;;;;;;-144.99;100.00;52370.63;5048429;28;20008;-74
2022/09/12 03:52:36;;;;;;;;;;;;;;;-144.99;100.00;52356.38;5034835;28;20016;-75
2022/09/12 03:55:03;;;;;;;;;;;;;;;-144.99;100.00;52323.75;5036832;28;20525;-76
2022/09/12 03:57:29;;;;;;;;;;;;;;;-144.99;100.00;52325.81;5047749;28;19971;-75
2022/09/12 03:59:57;;;;;;;;;;;;;;;-144.99;100.00;52344.16;5048592;28;19925;-76
2022/09/12 04:02:24;;;;;;;;;;;;;;;-144.99;100.00;52338.03;5045026;28;19968;-76
2022/09/12 04:04:50;;;;;;;;;;;;;;;-144.99;100.00;52333.94;5048219;28;19963;-76
2022/09/12 04:07:17;;;;;;;;;;;;;;;-144.99;100.00;52317.66;5047420;28;20484;-74
2022/09/12 04:09:43;;;;;;;;;;;;;;;-144.99;100.00;52346.19;5048110;28;19947;-71
2022/09/12 04:12:10;;;;;;;;;;;;;;;-144.99;100.00;52360.44;5047738;28;20431;-74
2022/09/12 04:14:37;;;;;;;;;;;;;;;-144.99;100.00;52346.19;5048399;28;19968;-75
2022/09/12 04:17:05;;;;;;;;;;;;;;;-144.99;100.00;52356.38;5036501;28;19925;-76
2022/09/12 04:19:31;;;;;;;;;;;;;;;-144.99;100.00;52299.31;5047575;28;19975;-73
2022/09/12 04:21:58;;;;;;;;;;;;;;;-144.99;100.00;52325.81;5047851;28;19972;-77
2022/09/12 04:24:24;;;;;;;;;;;;;;;-144.99;100.00;52354.34;5044426;28;19972;-76
2022/09/12 04:26:50;;;;;;;;;;;;;;;-144.99;100.00;52313.56;5043382;28;19924;-76
2022/09/12 04:29:17;;;;;;;;;;;;;;;-144.99;100.00;52350.25;5046140;28;20399;-76
2022/09/12 04:31:44;;;;;;;;;;;;;;;-144.99;100.00;52317.66;5044050;28;19976;-75
2022/09/12 04:34:12;;;;;;;;;;;;;;;-144.99;100.00;52319.69;5047886;28;19932;-74
2022/09/12 04:36:38;;;;;;;;;;;;;;;-144.99;100.00;52301.34;5035063;28;19928;-77
2022/09/12 04:39:06;;;;;;;;;;;;;;;-144.99;100.00;52321.72;5048750;28;19971;-77
2022/09/12 04:41:34;;;;;;;;;;;;;;;-144.99;100.00;52325.81;5047136;28;20035;-77
2022/09/12 04:44:01;;;;;;;;;;;;;;;-144.99;100.00;52350.25;5048464;28;19932;-78
2022/09/12 04:46:29;;;;;;;;;;;;;;;-144.99;100.00;52344.16;5049039;28;19945;-78
2022/09/12 04:48:55;;;;;;;;;;;;;;;-144.99;100.00;52350.25;5048102;28;19968;-77
2022/09/12 04:51:26;;;;;;;;;;;;;;;-144.99;100.00;52309.50;5043704;28;19998;-77
2022/09/12 04:53:53;;;;;;;;;;;;;;;-144.99;100.00;52346.19;4696781;28;9999736;-76
2022/09/12 04:56:20;;;;;;;;;;;;;;;-144.99;100.00;52325.81;5036646;28;19936;-76
2022/09/12 04:58:47;;;;;;;;;;;;;;;-144.99;100.00;52325.81;5035621;28;19967;-76
2022/09/12 05:01:14;;;;;;;;;;;;;;;-144.99;100.00;52336.00;5042605;28;20327;-76
2022/09/12 05:03:42;;;;;;;;;;;;;;;-144.99;100.00;52309.50;5044295;28;20040;-75
2022/09/12 05:06:09;;;;;;;;;;;;;;;-144.99;100.00;52305.41;5035006;28;19953;-76
2022/09/12 05:08:37;;;;;;;;;;;;;;;-144.99;100.00;52333.94;5030205;28;19968;-76
2022/09/12 05:11:05;;;;;;;;;;;;;;;-144.99;100.00;52309.50;5040789;28;20057;-76
2022/09/12 05:13:32;;;;;;;;;;;;;;;-144.99;100.00;52305.41;5038274;28;19933;-76
2022/09/12 05:16:00;;;;;;;;;;;;;;;-144.99;100.00;52321.72;5043727;28;20019;-76
2022/09/12 05:18:27;;;;;;;;;;;;;;;-144.99;100.00;52323.75;5046043;28;19990;-76
2022/09/12 05:20:53;;;;;;;;;;;;;;;-144.99;100.00;52272.81;5045728;28;20008;-76
2022/09/12 05:23:20;;;;;;;;;;;;;;;-144.99;100.00;52354.34;5045030;28;19982;-74
2022/09/12 05:25:52;;;;;;;;;;;;;;;-144.99;100.00;52346.19;5044488;28;19929;-76
2022/09/12 05:28:18;;;;;;;;;;;;;;;-144.99;100.00;52321.72;5046076;28;19940;-75
2022/09/12 05:30:45;;;;;;;;;;;;;;;-144.99;100.00;52358.41;5047688;28;19966;-76
2022/09/12 05:33:11;;;;;;;;;;;;;;;-144.99;100.00;52313.56;5038272;28;19929;-78
2022/09/12 05:35:39;;;;;;;;;;;;;;;-144.99;100.00;52346.19;5047256;28;19933;-77
2022/09/12 05:38:05;;;;;;;;;;;;;;;-144.99;100.00;52305.41;5047086;28;19933;-76
2022/09/12 05:40:32;;;;;;;;;;;;;;;-144.99;100.00;52325.81;5050422;28;19933;-78
2022/09/12 05:43:00;;;;;;;;;;;;;;;-144.99;100.00;52329.88;5055336;28;19967;-76
2022/09/12 05:45:27;;;;;;;;;;;;;;;-144.99;100.00;52297.25;5069511;28;19924;-75
2022/09/12 05:47:54;;;;;;;;;;;;;;;-144.99;100.00;52321.72;5055464;28;19913;-76
2022/09/12 05:50:20;;;;;;;;;;;;;;;-144.99;100.00;52309.50;5062813;28;19929;-76
2022/09/12 05:52:47;;;;;;;;;;;;;;;-144.99;100.00;52340.06;5060241;28;19929;-75
2022/09/12 05:55:13;;;;;;;;;;;;;;;-144.99;100.00;52338.03;5069573;28;20267;-77
2022/09/12 05:57:40;;;;;;;;;;;;;;;-144.99;100.00;52293.19;5059450;28;20112;-76
2022/09/12 06:00:09;;;;;;;;;;;;;;;-144.99;100.00;52305.41;5074595;28;19913;-76
2022/09/12 06:02:35;;;;;;;;;;;;;;;-144.99;99.94;52317.66;5071334;28;19976;-75
2022/09/12 06:05:02;;;;;;;;;;;;;;;-144.99;99.23;52305.41;5056154;28;19951;-76
2022/09/12 06:07:29;;;;;;;;;;;;;;;-144.99;99.34;52293.19;5067728;28;19928;-75
2022/09/12 06:09:58;;;;;;;;;;;;;;;-144.99;99.23;52305.41;5067313;28;20305;-75
2022/09/12 06:12:25;;;;;;;;;;;;;;;-144.99;99.33;52305.41;5048744;28;20031;-76
2022/09/12 06:14:52;;;;;;;;;;;;;;;-144.99;99.41;52256.50;5054252;28;20315;-76
2022/09/12 06:17:21;;;;;;;;;;;;;;;-144.99;99.00;52264.66;5048218;28;19970;-75
2022/09/12 06:19:48;;;;;;;;;;;;;;;-144.99;99.08;52305.41;5049964;28;20332;-76
2022/09/12 06:22:15;;;;;;;;;;;;;;;-144.99;98.93;52313.56;5048236;28;20260;-77
2022/09/12 06:24:41;;;;;;;;;;;;;;;-144.99;98.68;52260.56;5050594;28;19959;-76
2022/09/12 06:27:07;;;;;;;;;;;;;;;-144.99;97.85;52291.16;5048653;28;19932;-76
2022/09/12 06:29:34;;;;;;;;;;;;;;;-144.99;97.20;52264.66;5048622;28;20214;-76
2022/09/12 06:32:01;;;;;;;;;;;;;;;-144.99;97.01;52291.16;5043895;28;19982;-75
2022/09/12 06:34:29;;;;;;;;;;;;;;;-144.99;96.70;52287.06;5048595;28;19929;-76
2022/09/12 06:36:56;;;;;;;;;;;;;;;-144.99;96.24;52289.13;5048986;28;19960;-76
2022/09/12 06:39:23;;;;;;;;;;;;;;;-144.99;96.43;52264.66;5048741;28;20017;-75
2022/09/12 06:41:50;;;;;;;;;;;;;;;-144.99;96.28;52252.44;5046361;28;20031;-76
2022/09/12 06:44:18;;;;;;;;;;;;;;;-144.99;95.95;52278.91;5048782;28;20015;-76
2022/09/12 06:46:45;;;;;;;;;;;;;;;-144.99;95.86;52297.25;5046946;28;19928;-76
2022/09/12 06:49:11;;;;;;;;;;;;;;;-144.99;95.84;52252.44;5049406;28;19972;-77
2022/09/12 06:51:40;;;;;;;;;;;;;;;-144.99;95.16;52289.13;5043237;28;20028;-77
2022/09/12 06:54:07;;;;;;;;;;;;;;;-144.99;95.07;52280.97;5039206;28;19948;-78
2022/09/12 06:56:36;;;;;;;;;;;;;;;-144.99;94.60;52264.66;5049289;28;19955;-77
2022/09/12 06:59:03;;;;;;;;;;;;;;;-144.99;93.69;52287.06;5051454;28;19939;-75
2022/09/12 07:01:30;;;;;;;;;;;;;;;-144.99;94.39;52280.97;5041394;28;19979;-75
2022/09/12 07:03:57;;;;;;;;;;;;;;;-144.99;94.10;52236.13;5044788;28;19929;-75
2022/09/12 07:06:30;;;;;;;;;;;;;;;-144.99;93.97;52236.13;5049953;28;19998;-77
2022/09/12 07:08:58;;;;;;;;;;;;;;;-144.99;92.68;52227.97;5051913;28;20251;-77
2022/09/12 07:11:26;;;;;;;;;;;;;;;-144.99;91.68;52232.03;5033324;28;19929;-77
2022/09/12 07:13:53;;;;;;;;;;;;;;;-144.99;91.55;52264.66;5044788;28;20063;-76
2022/09/12 07:16:20;;;;;;;;;;;;;;;-144.99;91.98;52246.31;5050984;28;20277;-77
2022/09/12 07:18:50;;;;;;;;;;;;;;;-144.99;91.52;52232.03;5054936;28;19933;-77
2022/09/12 07:21:17;;;;;;;;;;;;;;;-144.99;91.01;52248.34;5047770;28;19929;-75
2022/09/12 07:23:44;;;;;;;;;;;;;;;-144.99;90.57;52223.88;5048591;28;20019;-78
2022/09/12 07:26:12;;;;;;;;;;;;;;;-144.99;91.19;52256.50;5048105;28;20019;-78
2022/09/12 07:28:39;;;;;;;;;;;;;;;-144.99;90.90;52264.66;5051212;28;19986;-77
2022/09/12 07:31:06;;;;;;;;;;;;;;;-144.99;89.74;52213.69;5049310;28;19933;-77
2022/09/12 07:33:33;;;;;;;;;;;;;;;-144.99;89.51;52219.81;5042187;28;19936;-78
2022/09/12 07:36:00;;;;;;;;;;;;;;;-144.99;88.86;52219.81;5050334;28;20527;-77
2022/09/12 07:38:27;;;;;;;;;;;;;;;-144.99;87.59;52232.03;5050558;28;20024;-77
2022/09/12 07:40:53;;;;;;;;;;;;;;;-144.99;87.16;52195.34;5050644;28;19964;-78
2022/09/12 07:43:21;;;;;;;;;;;;;;;-144.99;85.84;52260.56;5048709;28;20220;-78
2022/09/12 07:45:48;;;;;;;;;;;;;;;-144.99;84.12;52203.50;5050523;28;20059;-78
2022/09/12 07:48:15;;;;;;;;;;;;;;;-144.99;83.38;52174.97;5052298;28;19939;-79
2022/09/12 07:50:41;;;;;;;;;;;;;;;-144.99;82.99;52203.50;5051028;28;19936;-78
2022/09/12 07:53:08;;;;;;;;;;;;;;;-144.99;81.82;52223.88;5036754;28;20169;-79
2022/09/12 07:55:35;;;;;;;;;;;;;;;-144.99;81.03;52217.78;5050757;28;19933;-78
2022/09/12 07:58:02;;;;;;;;;;;;;;;-144.99;81.31;52223.88;5050536;28;19935;-77
2022/09/12 08:00:34;;;;;;;;;;;;;;;-144.99;79.95;52166.81;5052487;28;20019;-78
2022/09/12 08:03:03;;;;;;;;;;;;;;;-144.99;78.70;52197.41;5050316;28;20002;-79
2022/09/12 08:05:29;;;;;;;;;;;;;;;-144.99;77.92;52203.50;5051750;28;19936;-79
2022/09/12 08:07:56;;;;;;;;;;;;;;;-144.99;76.98;52219.81;5055037;28;20035;-79
2022/09/12 08:10:23;;;;;;;;;;;;;;;-144.99;75.26;52209.63;5053382;28;19951;-79
2022/09/12 08:12:49;;;;;;;;;;;;;;;-144.99;73.26;52183.13;5046981;28;19936;-78
2022/09/12 08:15:16;;;;;;;;;;;;;;;-144.99;72.26;52168.84;5047348;28;20033;-77
2022/09/12 08:17:44;;;;;;;;;;;;;;;-144.99;73.48;52209.63;5049671;28;19955;-78
2022/09/12 08:20:11;;;;;;;;;;;;;;;-144.99;72.58;52211.66;5052032;28;20006;-79
2022/09/12 08:22:38;;;;;;;;;;;;;;;-144.99;72.70;52162.75;5040639;28;19976;-78
2022/09/12 08:25:05;;;;;;;;;;;;;;;-144.99;70.69;52207.59;5050587;28;19929;-78
2022/09/12 08:27:32;;;;;;;;;;;;;;;-144.99;70.40;52201.47;5050052;28;19925;-79
2022/09/12 08:29:59;;;;;;;;;;;;;;;-144.99;71.26;52199.44;5053110;28;20346;-80
2022/09/12 08:32:26;;;;;;;;;;;;;;;-144.99;71.24;52205.53;5049226;28;19935;-79
2022/09/12 08:34:54;;;;;;;;;;;;;;;-144.99;71.60;52185.16;5049181;28;20111;-79
2022/09/12 08:37:20;;;;;;;;;;;;;;;-144.99;71.35;52195.34;5051366;28;19956;-78
2022/09/12 08:39:47;;;;;;;;;;;;;;;-144.99;71.32;52191.28;5049917;28;19924;-79
2022/09/12 08:42:23;;;;;;;;;;;;;;;-144.99;70.58;52199.44;5039269;28;20289;-79
2022/09/12 08:45:05;;;;;;;;;;;;;;;-144.99;67.75;52189.25;5050845;28;20402;-78
2022/09/12 08:47:33;;;;;;;;;;;;;;;-144.99;68.15;52179.06;5041010;28;19975;-79
2022/09/12 08:50:05;;;;;;;;;;;;;;;-144.99;68.04;52211.66;5052023;28;20015;-79
2022/09/12 08:52:36;;;;;;;;;;;;;;;-144.99;68.71;52195.34;5040775;28;20451;-78
2022/09/12 08:55:05;;;;;;;;;;;;;;;-144.99;67.75;52193.31;5052537;28;19929;-77
2022/09/12 08:57:32;;;;;;;;;;;;;;;-144.99;67.69;52195.34;5052560;28;19928;-78
2022/09/12 08:59:59;;;;;;;;;;;;;;;-144.99;67.67;52166.81;5053043;28;19928;-80
2022/09/12 09:02:36;;;;;;;;;;;;;;;-144.99;67.65;52207.59;5049916;28;19935;-79
2022/09/12 09:05:07;;;;;;;;;;;;;;;-144.99;66.16;52179.06;5052198;28;19931;-78
2022/09/12 09:07:54;;;;;;;;;;;;;;;-144.99;64.52;52174.97;5081596;22;20490;-72
2022/09/12 09:10:28;;;;;;;;;;;;;;;-144.99;63.75;52170.91;5083120;28;20320;-73
2022/09/12 09:12:59;;;;;;;;;;;;;;;-144.99;61.58;52179.06;5087274;28;19951;-73
2022/09/12 09:15:31;;;;;;;;;;;;;;;-144.99;61.34;52146.44;5086802;28;19932;-73
2022/09/12 09:18:00;;;;;;;;;;;;;;;-144.99;60.10;52166.81;5085192;28;19975;-73
2022/09/12 09:20:30;;;;;;;;;;;;;;;-144.99;59.08;52170.91;5085725;28;19938;-73
2022/09/12 09:23:00;;;;;;;;;;;;;;;-144.99;58.54;52195.34;5083804;28;19928;-73
2022/09/12 09:25:35;;;;;;;;;;;;;;;-144.99;58.52;52162.75;5084711;28;19968;-73
2022/09/12 09:28:04;;;;;;;;;;;;;;;-144.99;57.16;52203.50;5083182;28;20364;-72
2022/09/12 09:30:31;;;;;;;;;;;;;;;-144.99;56.38;52174.97;5083781;28;19930;-73
2022/09/12 09:33:00;;;;;;;;;;;;;;;-144.99;56.01;52162.75;5070440;28;19978;-72
2022/09/12 09:35:38;;;;;;;;;;;;;;;-144.99;56.00;52170.91;5087007;28;20406;-73
2022/09/12 09:38:08;;;;;;;;;;;;;;;-144.99;55.67;52166.81;5098895;28;19982;-73
2022/09/12 09:40:45;;;;;;;;;;;;;;;-144.99;54.41;52191.28;5101198;28;19924;-73
2022/09/12 09:43:17;;;;;;;;;;;;;;;-144.99;54.56;52195.34;5093949;28;19928;-72
2022/09/12 09:45:44;;;;;;;;;;;;;;;-144.99;54.00;52203.50;5091725;28;19962;-73
2022/09/12 09:48:15;;;;;;;;;;;;;;;-144.99;53.90;52138.28;5089317;28;20415;-74
2022/09/12 09:50:44;;;;;;;;;;;;;;;-144.99;52.94;52172.94;5088959;28;20326;-72
2022/09/12 09:53:16;;;;;;;;;;;;;;;-144.99;52.78;52162.75;5088174;28;19935;-73
2022/09/12 09:55:43;;;;;;;;;;;;;;;-144.99;51.94;52158.66;5083027;28;19924;-73
2022/09/12 09:58:09;;;;;;;;;;;;;;;-144.99;51.33;52179.06;5087323;28;20015;-73
2022/09/12 10:00:37;;;;;;;;;;;;;;;-144.99;50.45;52170.91;5087566;28;20031;-73
2022/09/12 10:03:25;;;;;;;;;;;;;;;-144.99;50.43;52130.13;5086301;28;19974;-72
2022/09/12 10:05:53;;;;;;;;;;;;;;;-144.99;50.14;52150.53;5089388;28;19935;-71
2022/09/12 10:08:20;;;;;;;;;;;;;;;-144.99;49.26;52166.81;5087962;28;19928;-73
2022/09/12 10:10:52;;;;;;;;;;;;;;;-144.99;48.95;52162.75;5085635;28;20742;-73
2022/09/12 10:13:23;;;;;;;;;;;;;;;-144.99;49.17;52156.63;5077588;28;19927;-73
2022/09/12 10:15:56;;;;;;;;;;;;;;;-144.99;48.71;52146.44;5086802;28;19975;-73
2022/09/12 10:18:32;;;;;;;;;;;;;;;-144.99;48.62;52146.44;5086529;28;19959;-73
2022/09/12 10:21:02;;;;;;;;;;;;;;;-144.99;48.69;52138.28;5087281;28;19928;-73
2022/09/12 10:23:30;;;;;;;;;;;;;;;-144.99;48.35;52126.06;5086523;28;20372;-73
2022/09/12 10:25:59;;;;;;;;;;;;;;;-144.99;48.34;52146.44;5084049;28;20422;-73
2022/09/12 10:28:31;;;;;;;;;;;;;;;-144.99;48.34;52117.91;5087095;28;20028;-73
2022/09/12 10:31:01;;;;;;;;;;;;;;;-144.99;48.98;52154.59;5082843;28;19960;-73
2022/09/12 10:33:29;;;;;;;;;;;;;;;-144.99;48.71;52101.59;5081996;28;20022;-73
2022/09/12 10:35:56;;;;;;;;;;;;;;;-144.99;48.64;52130.13;5086820;28;20493;-74
2022/09/12 10:38:25;;;;;;;;;;;;;;;-144.99;48.49;52097.53;5087227;28;19973;-74
2022/09/12 10:40:56;;;;;;;;;;;;;;;-144.99;48.86;52113.84;5086979;28;19971;-73
2022/09/12 10:43:27;;;;;;;;;;;;;;;-144.99;47.83;52121.97;5085126;28;20177;-73
2022/09/12 10:45:57;;;;;;;;;;;;;;;-144.99;48.73;52138.28;5085665;28;20399;-73
2022/09/12 10:48:27;;;;;;;;;;;;;;;-144.99;48.83;52134.22;5086382;28;20027;-74
2022/09/12 10:50:53;;;;;;;;;;;;;;;-144.99;49.00;52158.66;5086791;28;20398;-73
2022/09/12 10:53:20;;;;;;;;;;;;;;;-144.99;49.29;52146.44;5085870;28;20007;-73
2022/09/12 10:56:03;;;;;;;;;;;;;;;-144.99;49.62;52146.44;5080064;28;20023;-73
2022/09/12 10:58:36;;;;;;;;;;;;;;;-144.99;49.19;52174.97;5087535;28;19991;-73
2022/09/12 11:01:08;;;;;;;;;;;;;;;-144.99;48.65;52101.59;5085535;28;19938;-73
2022/09/12 11:03:44;;;;;;;;;;;;;;;-144.99;48.11;52117.91;5086160;28;19935;-73
2022/09/12 11:06:15;;;;;;;;;;;;;;;-144.99;48.56;52138.28;5086124;28;19931;-73
2022/09/12 11:08:48;;;;;;;;;;;;;;;-144.99;48.68;52105.69;5086584;28;20398;-74
2022/09/12 11:11:29;;;;;;;;;;;;;;;-144.99;47.86;52138.28;5084444;28;20039;-73
2022/09/12 11:14:06;;;;;;;;;;;;;;;-144.99;48.00;52117.91;5086284;28;19924;-74
2022/09/12 11:16:35;;;;;;;;;;;;;;;-144.99;47.86;52142.38;5081242;28;20018;-74
2022/09/12 11:19:18;;;;;;;;;;;;;;;-144.99;47.45;52138.28;5086667;28;20039;-74
2022/09/12 11:21:52;;;;;;;;;;;;;;;-144.99;47.56;52162.75;5085479;28;19928;-73
2022/09/12 11:24:35;;;;;;;;;;;;;;;-144.99;48.02;52146.44;5083244;28;19934;-74
2022/09/12 11:27:12;;;;;;;;;;;;;;;-144.99;48.59;52138.28;5085547;28;19955;-73
2022/09/12 11:29:47;;;;;;;;;;;;;;;-144.99;49.29;52130.13;5086387;28;19992;-74
2022/09/12 11:32:21;;;;;;;;;;;;;;;-144.99;50.54;52150.53;5083834;28;19931;-73
2022/09/12 11:34:54;;;;;;;;;;;;;;;-144.99;51.52;52174.97;5083714;28;19975;-73
2022/09/12 11:37:30;;;;;;;;;;;;;;;-144.99;51.94;52232.03;5089543;28;19928;-73
2022/09/12 11:40:01;;;;;;;;;;;;;;;-144.99;53.27;52183.13;5087910;28;20703;-73
2022/09/12 11:42:33;;;;;;;;;;;;;;;-144.99;53.01;52201.47;5084471;28;19936;-73
2022/09/12 11:45:04;;;;;;;;;;;;;;;-144.99;52.96;52174.97;5085595;28;19928;-73
2022/09/12 11:47:33;;;;;;;;;;;;;;;-144.99;52.19;52162.75;5083643;28;20032;-73
2022/09/12 11:50:00;;;;;;;;;;;;;;;-144.99;51.92;52166.81;5085568;28;19924;-73
2022/09/12 11:52:30;;;;;;;;;;;;;;;-144.99;51.37;52154.59;5084334;28;20018;-73
2022/09/12 11:55:00;;;;;;;;;;;;;;;-144.99;51.25;52109.75;5079518;28;20357;-73
2022/09/12 11:57:30;;;;;;;;;;;;;;;-144.99;50.94;52105.69;5085023;28;20718;-73
2022/09/12 11:59:59;;;;;;;;;;;;;;;-144.99;50.35;52103.66;5086046;28;20035;-73
2022/09/12 12:02:27;;;;;;;;;;;;;;;-144.99;49.17;52073.06;5083014;28;20310;-72
2022/09/12 12:05:03;;;;;;;;;;;;;;;-144.99;48.86;52101.59;5086074;28;19928;-73
2022/09/12 12:07:31;;;;;;;;;;;;;;;-144.99;47.51;52056.78;5084163;28;19935;-73
2022/09/12 12:09:58;;;;;;;;;;;;;;;-144.99;46.56;52032.31;5084844;28;19928;-73
2022/09/12 12:12:26;;;;;;;;;;;;;;;-144.99;45.72;51987.47;5083725;28;19958;-73
2022/09/12 12:14:54;;;;;;;;;;;;;;;-144.99;44.48;51944.69;5085152;28;20022;-74
2022/09/12 12:17:23;;;;;;;;;;;;;;;-144.99;43.59;52073.06;5080263;28;19983;-74
2022/09/12 12:19:57;;;;;;;;;;;;;;;-144.99;44.70;52111.78;5084853;28;19928;-73
2022/09/12 12:22:24;;;;;;;;;;;;;;;-144.99;44.57;52089.38;5084460;28;19928;-73
2022/09/12 12:24:55;;;;;;;;;;;;;;;-144.99;44.86;52101.59;5084546;28;20391;-73
2022/09/12 12:27:25;;;;;;;;;;;;;;;-144.99;45.96;52036.38;5084408;28;19948;-73
2022/09/12 12:29:51;;;;;;;;;;;;;;;-144.99;45.57;52107.72;5084912;28;19944;-73
2022/09/12 12:32:19;;;;;;;;;;;;;;;-144.99;44.77;52085.31;5082628;28;20454;-73